Time;durP1;ratioP1;P1;durP2;ratioP2;P2;SDS_P1;SDS_P2;PMS_P1;PMS_P2;Temp;Humidity;BMP_temperature;BMP_pressure;BME280_temperature;BME280_humidity;BME280_pressure;Samples;Min_cycle;Max_cycle;Signal;HPM_P1;HPM_P2
2022/03/07 00:01:26;;;;;;;19.80;14.90;;;1.30;72.90;;;;;;4998227;28;20178;-91
2022/03/07 00:03:54;;;;;;;19.00;14.43;;;1.20;73.00;;;;;;5015912;28;20211;-94
2022/03/07 00:06:19;;;;;;;20.23;15.03;;;1.30;73.90;;;;;;5006969;28;20171;-85
2022/03/07 00:08:45;;;;;;;22.27;15.03;;;1.40;73.10;;;;;;5025036;28;20181;-83
2022/03/07 00:11:12;;;;;;;17.70;14.80;;;1.30;73.30;;;;;;5029947;28;20185;-87
2022/03/07 00:13:37;;;;;;;20.37;15.23;;;1.20;73.20;;;;;;5020349;28;20203;-91
2022/03/07 00:16:04;;;;;;;18.23;14.33;;;1.20;73.60;;;;;;5028451;28;20178;-87
2022/03/07 00:18:30;;;;;;;18.57;15.10;;;1.10;73.60;;;;;;5021077;28;20632;-88
2022/03/07 00:20:56;;;;;;;21.03;15.07;;;1.10;73.40;;;;;;5022659;28;20171;-90
2022/03/07 00:23:22;;;;;;;18.70;14.43;;;1.10;73.50;;;;;;5039091;28;20197;-90
2022/03/07 00:25:48;;;;;;;17.93;14.97;;;1.10;73.90;;;;;;5029485;28;20182;-90
2022/03/07 00:28:16;;;;;;;19.17;14.50;;;1.10;73.70;;;;;;5007107;28;20231;-88
2022/03/07 00:30:42;;;;;;;21.50;14.60;;;1.00;74.00;;;;;;4997514;28;20183;-90
2022/03/07 00:33:08;;;;;;;18.40;14.63;;;0.90;74.20;;;;;;5017552;28;20234;-83
2022/03/07 00:35:34;;;;;;;19.63;14.17;;;0.90;73.80;;;;;;5025898;28;20205;-91
2022/03/07 00:37:59;;;;;;;19.67;14.43;;;0.90;74.20;;;;;;4998196;28;20240;-86
2022/03/07 00:40:25;;;;;;;19.57;14.63;;;0.90;74.40;;;;;;5013892;28;20224;-86
2022/03/07 00:42:51;;;;;;;19.83;15.40;;;0.80;74.20;;;;;;5014064;28;20645;-86
2022/03/07 00:45:17;;;;;;;18.27;14.90;;;0.80;74.40;;;;;;4998602;28;20269;-91
2022/03/07 00:47:43;;;;;;;20.03;14.87;;;0.90;74.40;;;;;;5018980;28;20182;-88
2022/03/07 00:50:09;;;;;;;18.17;14.30;;;0.90;74.40;;;;;;5017430;28;20190;-92
2022/03/07 00:52:35;;;;;;;18.60;14.33;;;1.00;74.30;;;;;;5017930;28;20174;-90
2022/03/07 00:55:01;;;;;;;19.70;15.27;;;0.90;74.40;;;;;;4999602;28;20185;-92
2022/03/07 00:57:27;;;;;;;21.07;16.03;;;0.90;74.10;;;;;;5017181;28;20180;-90
2022/03/07 00:59:54;;;;;;;19.40;15.10;;;0.90;74.20;;;;;;5017365;28;20568;-91
2022/03/07 01:02:19;;;;;;;18.03;14.87;;;1.00;74.30;;;;;;5017583;28;20207;-93
2022/03/07 01:04:45;;;;;;;23.03;16.90;;;0.90;74.30;;;;;;5019496;28;20259;-90
2022/03/07 01:07:11;;;;;;;20.77;16.03;;;0.90;74.50;;;;;;4998764;28;20204;-93
2022/03/07 01:09:37;;;;;;;21.53;15.40;;;0.80;74.60;;;;;;5015662;28;20221;-93
2022/03/07 01:12:03;;;;;;;23.40;15.87;;;0.70;75.00;;;;;;5014245;28;20618;-91
2022/03/07 01:14:29;;;;;;;21.03;16.00;;;0.70;75.20;;;;;;4998316;28;20177;-92
2022/03/07 01:16:54;;;;;;;19.77;15.30;;;0.70;75.10;;;;;;5016354;28;20235;-92
2022/03/07 01:19:20;;;;;;;17.67;14.90;;;0.60;75.30;;;;;;5016691;28;20174;-89
2022/03/07 01:21:46;;;;;;;19.53;15.20;;;0.50;75.10;;;;;;5000088;28;20267;-91
2022/03/07 01:24:12;;;;;;;22.83;15.60;;;0.50;75.30;;;;;;5016987;28;20180;-93
2022/03/07 01:26:38;;;;;;;20.37;15.80;;;0.50;75.80;;;;;;4999853;28;20205;-90
2022/03/07 01:29:05;;;;;;;24.87;15.83;;;0.40;75.70;;;;;;5017604;28;20178;-92
2022/03/07 01:31:31;;;;;;;20.10;15.43;;;0.30;75.90;;;;;;5017181;28;20173;-93
2022/03/07 01:33:57;;;;;;;17.87;14.17;;;0.30;76.10;;;;;;5016774;28;20220;-94
2022/03/07 01:36:23;;;;;;;19.03;14.87;;;0.40;76.40;;;;;;5016730;28;20174;-92
2022/03/07 01:38:50;;;;;;;23.17;17.20;;;0.50;76.10;;;;;;5016376;28;20174;-91
2022/03/07 01:41:15;;;;;;;18.57;14.80;;;0.50;76.50;;;;;;5017318;28;20255;-91
2022/03/07 01:43:41;;;;;;;20.57;15.80;;;0.40;76.50;;;;;;4998819;28;20242;-93
2022/03/07 01:46:09;;;;;;;22.17;15.57;;;0.30;76.30;;;;;;5017444;28;20577;-84
2022/03/07 01:48:35;;;;;;;22.43;15.77;;;0.30;76.60;;;;;;4998577;28;20188;-82
2022/03/07 01:51:02;;;;;;;19.10;15.00;;;0.30;76.40;;;;;;5001533;28;20187;-82
2022/03/07 01:53:28;;;;;;;19.93;15.60;;;0.30;76.90;;;;;;5026576;28;20234;-88
2022/03/07 01:55:55;;;;;;;22.17;14.90;;;0.30;76.80;;;;;;5019570;28;20182;-86
2022/03/07 01:58:21;;;;;;;18.67;14.33;;;0.20;76.90;;;;;;5017897;28;20173;-85
2022/03/07 02:00:47;;;;;;;20.23;14.50;;;0.20;76.90;;;;;;5017037;28;20186;-84
2022/03/07 02:03:13;;;;;;;20.07;14.77;;;0.10;77.00;;;;;;5016978;28;20287;-83
2022/03/07 02:05:45;;;;;;;23.90;15.80;;;0.10;76.80;;;;;;5018576;28;20195;-84
2022/03/07 02:08:11;;;;;;;18.57;14.33;;;0.10;76.90;;;;;;5004930;28;20185;-86
2022/03/07 02:10:37;;;;;;;21.23;14.67;;;0.10;77.20;;;;;;5010400;28;20168;-86
2022/03/07 02:13:13;;;;;;;17.87;14.13;;;0.00;77.00;;;;;;5024131;28;20186;-87
2022/03/07 02:15:38;;;;;;;18.27;13.60;;;0.00;77.30;;;;;;5024393;28;20242;-82
2022/03/07 02:18:04;;;;;;;20.13;15.13;;;0.00;77.50;;;;;;5023326;28;20173;-83
2022/03/07 02:20:30;;;;;;;20.83;15.40;;;0.00;77.30;;;;;;5019479;28;20181;-84
2022/03/07 02:22:56;;;;;;;19.30;14.87;;;0.00;77.30;;;;;;5033929;28;20230;-86
2022/03/07 02:25:22;;;;;;;19.37;14.63;;;0.00;77.40;;;;;;5034559;28;20200;-84
2022/03/07 02:27:48;;;;;;;20.13;15.07;;;0.00;77.80;;;;;;5034142;28;20178;-82
2022/03/07 02:30:14;;;;;;;18.83;14.23;;;0.00;77.90;;;;;;5026839;28;20213;-86
2022/03/07 02:32:44;;;;;;;19.87;14.57;;;-0.10;77.90;;;;;;5018333;28;20221;-87
2022/03/07 02:35:14;;;;;;;20.57;15.20;;;-0.10;77.90;;;;;;4999782;28;20332;-87
2022/03/07 02:37:41;;;;;;;19.67;15.50;;;-0.10;77.80;;;;;;5017324;28;20192;-85
2022/03/07 02:40:07;;;;;;;20.57;15.00;;;-0.20;77.80;;;;;;4999651;28;20174;-91
2022/03/07 02:42:33;;;;;;;19.40;14.43;;;-0.20;77.90;;;;;;5018715;28;20201;-92
2022/03/07 02:44:59;;;;;;;28.60;15.10;;;-0.20;78.00;;;;;;5020895;28;20506;-92
2022/03/07 02:47:26;;;;;;;18.67;14.70;;;-0.30;77.30;;;;;;5019406;28;20177;-93
2022/03/07 02:49:52;;;;;;;19.30;15.00;;;-0.50;77.70;;;;;;5005242;28;20181;-83
2022/03/07 02:52:17;;;;;;;19.10;15.03;;;-0.50;78.10;;;;;;5003492;28;20547;-88
2022/03/07 02:54:43;;;;;;;19.87;14.63;;;-0.50;78.00;;;;;;5018465;28;20201;-86
2022/03/07 02:57:09;;;;;;;19.17;14.30;;;-0.50;78.20;;;;;;5017804;28;20182;-90
2022/03/07 02:59:35;;;;;;;19.03;14.83;;;-0.50;78.00;;;;;;5017216;28;20177;-86
2022/03/07 03:02:01;;;;;;;20.03;14.87;;;-0.60;78.00;;;;;;4999248;28;20196;-91
2022/03/07 03:04:27;;;;;;;21.47;14.77;;;-0.60;78.00;;;;;;5016775;28;20667;-90
2022/03/07 03:06:53;;;;;;;19.17;14.83;;;-0.60;78.10;;;;;;5001288;28;20182;-87
2022/03/07 03:09:19;;;;;;;20.77;14.93;;;-0.60;78.40;;;;;;5018862;28;20177;-91
2022/03/07 03:11:45;;;;;;;19.77;14.60;;;-0.60;78.40;;;;;;5018300;28;20180;-88
2022/03/07 03:14:11;;;;;;;20.47;14.77;;;-0.60;78.50;;;;;;5017400;28;20169;-90
2022/03/07 03:16:36;;;;;;;19.67;15.20;;;-0.60;78.40;;;;;;4998974;28;20191;-86
2022/03/07 03:19:02;;;;;;;19.17;14.53;;;-0.60;78.30;;;;;;5016386;28;20180;-88
2022/03/07 03:21:28;;;;;;;17.77;14.03;;;-0.60;78.40;;;;;;4998590;28;20637;-85
2022/03/07 03:23:54;;;;;;;21.50;15.30;;;-0.70;78.30;;;;;;5018671;28;20259;-83
2022/03/07 03:26:20;;;;;;;20.40;15.13;;;-0.70;78.10;;;;;;5016686;28;20188;-84
2022/03/07 03:28:46;;;;;;;21.87;14.80;;;-0.70;78.30;;;;;;5015999;28;20187;-87
2022/03/07 03:31:12;;;;;;;21.20;15.20;;;-0.80;78.70;;;;;;5022140;28;20189;-91
2022/03/07 03:33:39;;;;;;;19.07;15.00;;;-0.80;78.80;;;;;;5024261;28;20247;-87
2022/03/07 03:36:05;;;;;;;23.10;15.80;;;-0.70;79.00;;;;;;5017475;28;20256;-88
2022/03/07 03:38:31;;;;;;;18.73;14.97;;;-0.80;78.80;;;;;;4999623;28;20687;-87
2022/03/07 03:40:57;;;;;;;19.10;15.20;;;-0.80;78.80;;;;;;5016934;28;20201;-89
2022/03/07 03:43:23;;;;;;;18.03;14.40;;;-0.90;78.80;;;;;;4999141;28;20209;-92
2022/03/07 03:45:48;;;;;;;22.57;15.07;;;-0.90;79.00;;;;;;5016620;28;20179;-91
2022/03/07 03:48:14;;;;;;;20.97;15.47;;;-1.00;79.10;;;;;;5016757;28;20256;-88
2022/03/07 03:50:40;;;;;;;20.53;14.10;;;-1.00;79.10;;;;;;5016514;28;20201;-88
2022/03/07 03:53:06;;;;;;;21.67;15.07;;;-1.10;79.10;;;;;;5016153;28;20220;-90
2022/03/07 03:55:32;;;;;;;19.23;14.80;;;-1.10;79.20;;;;;;4998579;28;20181;-92
2022/03/07 03:57:58;;;;;;;22.17;14.70;;;-1.20;79.30;;;;;;5015901;28;20648;-87
2022/03/07 04:00:28;;;;;;;17.73;14.23;;;-1.10;79.70;;;;;;5025857;28;20161;-87
2022/03/07 04:02:53;;;;;;;21.13;14.73;;;-1.20;79.30;;;;;;5039074;28;20185;-89
2022/03/07 04:05:19;;;;;;;18.93;14.20;;;-1.20;79.70;;;;;;5038241;28;20154;-87
2022/03/07 04:07:46;;;;;;;18.43;14.73;;;-1.20;79.40;;;;;;5021044;28;20180;-86
2022/03/07 04:10:14;;;;;;;21.10;14.90;;;-1.20;79.50;;;;;;5016528;28;20696;-93
2022/03/07 04:12:41;;;;;;;21.60;14.50;;;-1.20;79.40;;;;;;5018020;28;20169;-91
2022/03/07 04:15:07;;;;;;;21.80;15.20;;;-1.20;79.70;;;;;;5018107;28;20565;-88
2022/03/07 04:17:36;;;;;;;19.17;14.83;;;-1.20;79.60;;;;;;5002934;28;20181;-93
2022/03/07 04:20:03;;;;;;;19.20;14.20;;;-1.20;79.80;;;;;;5038387;28;20158;-91
2022/03/07 04:22:29;;;;;;;20.37;14.27;;;-1.20;80.20;;;;;;5025241;28;20219;-92
2022/03/07 04:24:55;;;;;;;19.37;14.47;;;-1.20;80.00;;;;;;5019942;28;20589;-93
2022/03/07 04:27:20;;;;;;;24.40;15.57;;;-1.20;79.80;;;;;;5016259;28;20252;-93
2022/03/07 04:29:46;;;;;;;23.93;15.10;;;-1.20;80.50;;;;;;5016180;28;20256;-90
2022/03/07 04:32:12;;;;;;;18.23;14.17;;;-1.30;79.80;;;;;;5015520;28;20238;-88
2022/03/07 04:34:38;;;;;;;19.57;15.20;;;-1.40;80.20;;;;;;4998523;28;20189;-89
2022/03/07 04:37:04;;;;;;;18.90;14.70;;;-1.40;80.40;;;;;;4999273;28;20202;-85
2022/03/07 04:39:29;;;;;;;21.83;15.00;;;-1.50;80.60;;;;;;5017094;28;20502;-88
2022/03/07 04:41:55;;;;;;;19.30;15.20;;;-1.50;80.70;;;;;;5022224;28;20165;-88
2022/03/07 04:44:21;;;;;;;20.87;15.07;;;-1.40;80.80;;;;;;5025494;28;20201;-92
2022/03/07 04:46:47;;;;;;;20.37;14.70;;;-1.40;80.60;;;;;;5016042;28;20245;-89
2022/03/07 04:49:13;;;;;;;23.73;15.60;;;-1.40;80.60;;;;;;5015665;28;20200;-83
2022/03/07 04:51:40;;;;;;;21.53;15.57;;;-1.40;80.60;;;;;;5014717;28;20173;-86
2022/03/07 04:54:06;;;;;;;22.40;15.40;;;-1.40;80.60;;;;;;4996921;28;20194;-85
2022/03/07 04:56:32;;;;;;;22.40;15.57;;;-1.30;80.60;;;;;;5014679;28;20267;-91
2022/03/07 04:58:58;;;;;;;20.77;15.23;;;-1.50;80.60;;;;;;5015883;28;20207;-88
2022/03/07 05:01:24;;;;;;;21.80;15.50;;;-1.50;80.60;;;;;;4998011;28;20232;-92
2022/03/07 05:03:49;;;;;;;23.00;15.67;;;-1.50;81.00;;;;;;5015437;28;20224;-91
2022/03/07 05:06:16;;;;;;;18.73;14.87;;;-1.40;80.90;;;;;;5019500;28;20239;-91
2022/03/07 05:08:41;;;;;;;20.07;15.20;;;-1.30;80.70;;;;;;5021971;28;20573;-92
2022/03/07 05:11:07;;;;;;;20.23;14.97;;;-1.40;80.60;;;;;;5026464;28;20203;-89
2022/03/07 05:13:33;;;;;;;22.00;15.57;;;-1.40;80.70;;;;;;5025338;28;20173;-91
2022/03/07 05:15:59;;;;;;;20.07;14.80;;;-1.40;80.80;;;;;;5016993;28;20177;-88
2022/03/07 05:18:25;;;;;;;20.10;15.67;;;-1.40;81.00;;;;;;5016846;28;20177;-93
2022/03/07 05:20:51;;;;;;;22.93;15.57;;;-1.50;80.90;;;;;;4999838;28;20184;-93
2022/03/07 05:23:17;;;;;;;26.07;14.97;;;-1.60;81.20;;;;;;4999441;28;20212;-93
2022/03/07 05:25:42;;;;;;;21.97;15.33;;;-1.50;81.20;;;;;;5016516;28;20200;-91
2022/03/07 05:28:08;;;;;;;19.60;15.13;;;-1.50;81.10;;;;;;5021147;28;20633;-88
2022/03/07 05:30:34;;;;;;;21.73;15.07;;;-1.50;81.30;;;;;;5004815;28;20173;-90
2022/03/07 05:33:00;;;;;;;21.40;15.20;;;-1.60;81.30;;;;;;5020916;28;20224;-86
2022/03/07 05:35:26;;;;;;;24.23;16.17;;;-1.50;81.30;;;;;;5019445;28;20629;-90
2022/03/07 05:37:52;;;;;;;22.87;15.87;;;-1.50;81.30;;;;;;5018537;28;20185;-89
2022/03/07 05:40:18;;;;;;;23.70;16.10;;;-1.40;81.20;;;;;;5018526;28;20223;-90
2022/03/07 05:42:44;;;;;;;24.63;16.37;;;-1.60;81.40;;;;;;5018346;28;20224;-87
2022/03/07 05:45:12;;;;;;;21.57;16.07;;;-1.50;81.70;;;;;;5018188;28;20244;-87
2022/03/07 05:47:38;;;;;;;21.37;15.03;;;-1.50;81.70;;;;;;5001424;28;20601;-84
2022/03/07 05:50:05;;;;;;;26.23;16.77;;;-1.50;81.60;;;;;;5033218;28;20183;-87
2022/03/07 05:52:31;;;;;;;23.30;16.73;;;-1.50;81.60;;;;;;5035946;28;20177;-85
2022/03/07 05:54:57;;;;;;;23.23;16.33;;;-1.50;81.70;;;;;;5028890;28;20177;-88
2022/03/07 05:57:23;;;;;;;21.07;15.87;;;-1.30;81.30;;;;;;5024810;28;20180;-91
2022/03/07 05:59:52;;;;;;;22.57;16.57;;;-1.40;81.20;;;;;;5021816;28;20169;-91
2022/03/07 06:02:18;;;;;;;22.93;15.70;;;-1.40;81.20;;;;;;5002499;28;20558;-92
2022/03/07 06:04:44;;;;;;;23.77;15.83;;;-1.40;81.30;;;;;;5020592;28;20235;-89
2022/03/07 06:07:10;;;;;;;26.03;16.93;;;-1.40;81.10;;;;;;5020257;28;20177;-86
2022/03/07 06:09:35;;;;;;;22.83;16.73;;;-1.40;81.00;;;;;;5020661;28;20529;-81
2022/03/07 06:12:03;;;;;;;22.30;15.37;;;-1.40;81.20;;;;;;5004380;28;20188;-86
2022/03/07 06:14:29;;;;;;;25.53;16.83;;;-1.30;86.50;;;;;;5023666;28;20185;-86
2022/03/07 06:16:54;;;;;;;22.40;15.53;;;-1.00;90.40;;;;;;5000762;28;20177;-90
2022/03/07 06:19:20;;;;;;;35.70;16.73;;;-0.90;84.20;;;;;;5020635;28;20177;-86
2022/03/07 06:21:46;;;;;;;24.63;16.80;;;-1.00;82.10;;;;;;5037720;28;20169;-85
2022/03/07 06:24:12;;;;;;;25.73;16.53;;;-1.00;81.80;;;;;;5029349;28;20214;-90
2022/03/07 06:26:38;;;;;;;24.87;16.13;;;-1.10;81.90;;;;;;5029762;28;20153;-92
2022/03/07 06:29:05;;;;;;;24.27;17.30;;;-1.10;81.50;;;;;;5017811;28;20267;-88
2022/03/07 06:31:32;;;;;;;23.07;16.43;;;-1.10;81.40;;;;;;5018040;28;20185;-92
2022/03/07 06:33:58;;;;;;;22.90;15.90;;;-1.10;81.60;;;;;;5017431;28;20261;-88
2022/03/07 06:36:24;;;;;;;24.67;17.13;;;-1.10;81.90;;;;;;5000592;28;20185;-93
2022/03/07 06:38:50;;;;;;;25.97;15.77;;;-1.00;83.30;;;;;;4999122;28;20228;-90
2022/03/07 06:41:15;;;;;;;26.00;16.83;;;-0.90;81.90;;;;;;5000044;28;20664;-89
2022/03/07 06:43:41;;;;;;;22.57;15.90;;;-0.90;81.50;;;;;;4999656;28;20213;-90
2022/03/07 06:46:07;;;;;;;26.50;17.33;;;-0.90;81.80;;;;;;5016960;28;20656;-83
2022/03/07 06:48:35;;;;;;;26.70;16.97;;;-0.90;81.40;;;;;;5000068;28;20180;-88
2022/03/07 06:51:01;;;;;;;29.93;17.20;;;-0.90;81.90;;;;;;5021353;28;20168;-85
2022/03/07 06:53:27;;;;;;;22.97;16.73;;;-0.80;81.90;;;;;;5011075;28;20194;-84
2022/03/07 06:55:53;;;;;;;24.07;17.40;;;-0.80;81.90;;;;;;5012205;28;20174;-86
2022/03/07 06:58:20;;;;;;;25.20;17.67;;;-0.70;81.50;;;;;;5009782;28;20183;-83
2022/03/07 07:00:46;;;;;;;29.20;17.17;;;-0.60;81.30;;;;;;5007808;28;20238;-89
2022/03/07 07:03:11;;;;;;;28.87;17.20;;;-0.50;80.70;;;;;;5005556;28;20220;-87
2022/03/07 07:05:37;;;;;;;26.57;17.73;;;-0.50;81.10;;;;;;5001542;28;20181;-85
2022/03/07 07:08:04;;;;;;;23.23;17.30;;;-0.50;80.80;;;;;;4983920;28;20186;-86
2022/03/07 07:10:30;;;;;;;27.10;17.83;;;-0.40;80.80;;;;;;5001460;28;20257;-91
2022/03/07 07:12:55;;;;;;;26.53;17.67;;;-0.30;80.30;;;;;;4981135;28;20224;-89
2022/03/07 07:15:21;;;;;;;22.83;16.80;;;-0.20;80.60;;;;;;4978315;28;20557;-89
2022/03/07 07:17:47;;;;;;;21.50;16.27;;;-0.10;80.20;;;;;;4998499;28;20196;-89
2022/03/07 07:20:13;;;;;;;28.43;17.97;;;-0.10;79.60;;;;;;5001215;28;20599;-86
2022/03/07 07:22:40;;;;;;;23.83;16.87;;;0.00;79.20;;;;;;5000977;28;20346;-88
2022/03/07 07:25:07;;;;;;;23.70;17.33;;;0.10;79.50;;;;;;4999969;28;20167;-89
2022/03/07 07:27:33;;;;;;;24.20;17.10;;;0.10;78.80;;;;;;5000766;28;20683;-88
2022/03/07 07:29:59;;;;;;;27.03;16.50;;;0.30;79.00;;;;;;5000694;28;20174;-88
2022/03/07 07:32:25;;;;;;;24.10;16.70;;;0.30;78.60;;;;;;5001418;28;20665;-84
2022/03/07 07:34:54;;;;;;;26.97;18.27;;;0.30;78.40;;;;;;5018022;28;20181;-87
2022/03/07 07:37:20;;;;;;;28.80;16.53;;;0.40;78.30;;;;;;5018282;28;20183;-86
2022/03/07 07:39:46;;;;;;;24.63;16.20;;;0.50;78.30;;;;;;5047064;28;20201;-86
2022/03/07 07:42:12;;;;;;;31.93;18.03;;;0.60;77.80;;;;;;5038093;28;20187;-89
2022/03/07 07:44:38;;;;;;;23.63;17.43;;;0.70;77.40;;;;;;5051813;28;20190;-87
2022/03/07 07:47:07;;;;;;;22.83;16.40;;;0.70;76.50;;;;;;5028319;28;20182;-84
2022/03/07 07:49:33;;;;;;;21.77;16.10;;;0.70;76.10;;;;;;5025158;28;20181;-87
2022/03/07 07:51:59;;;;;;;23.37;16.37;;;0.70;75.80;;;;;;5022280;28;20183;-86
2022/03/07 07:54:25;;;;;;;22.97;16.53;;;0.70;76.60;;;;;;5017781;28;20231;-88
2022/03/07 07:56:51;;;;;;;25.97;18.00;;;0.70;76.70;;;;;;5054774;28;20170;-89
2022/03/07 07:59:18;;;;;;;23.97;16.83;;;0.70;76.30;;;;;;5054685;28;20738;-88
2022/03/07 08:01:44;;;;;;;24.20;17.63;;;0.80;76.50;;;;;;5036933;28;20185;-88
2022/03/07 08:04:12;;;;;;;29.23;17.87;;;0.80;76.30;;;;;;5037866;28;20286;-84
2022/03/07 08:06:37;;;;;;;31.70;18.80;;;0.90;75.70;;;;;;5061279;28;20164;-83
2022/03/07 08:09:04;;;;;;;24.73;18.10;;;0.90;75.30;;;;;;5055712;28;20217;-88
2022/03/07 08:11:30;;;;;;;26.27;18.17;;;0.90;75.40;;;;;;5055419;28;20177;-88
2022/03/07 08:13:55;;;;;;;26.60;18.13;;;1.00;75.50;;;;;;5055490;28;20169;-86
2022/03/07 08:16:21;;;;;;;24.43;17.57;;;1.10;75.30;;;;;;5055038;28;20165;-86
2022/03/07 08:18:47;;;;;;;22.37;17.70;;;1.10;75.30;;;;;;5039899;28;20223;-87
2022/03/07 08:21:13;;;;;;;22.43;17.80;;;1.10;75.70;;;;;;5056547;28;20243;-88
2022/03/07 08:23:39;;;;;;;27.17;18.77;;;1.20;75.90;;;;;;5036473;28;20212;-87
2022/03/07 08:26:05;;;;;;;25.70;17.50;;;1.30;75.10;;;;;;5054047;28;20255;-87
2022/03/07 08:28:31;;;;;;;25.00;18.77;;;1.40;74.10;;;;;;5054181;28;20176;-87
2022/03/07 08:30:57;;;;;;;28.47;18.57;;;1.40;74.20;;;;;;5036093;28;20173;-86
2022/03/07 08:33:23;;;;;;;27.43;18.37;;;1.40;74.60;;;;;;5036169;28;20248;-87
2022/03/07 08:35:51;;;;;;;28.13;18.27;;;1.50;75.10;;;;;;5053963;28;20169;-86
2022/03/07 08:38:17;;;;;;;26.37;18.37;;;1.60;73.80;;;;;;5036099;28;20186;-86
2022/03/07 08:40:43;;;;;;;25.50;17.23;;;1.60;73.20;;;;;;5036027;28;20227;-86
2022/03/07 08:43:09;;;;;;;23.23;17.63;;;1.60;72.50;;;;;;5035950;28;20335;-86
2022/03/07 08:45:34;;;;;;;24.13;18.03;;;1.60;73.40;;;;;;5035992;28;20179;-87
2022/03/07 08:48:00;;;;;;;31.30;19.10;;;1.60;73.50;;;;;;5054098;28;20174;-86
2022/03/07 08:50:26;;;;;;;27.73;19.17;;;1.70;74.00;;;;;;5036322;28;20199;-86
2022/03/07 08:52:53;;;;;;;27.37;17.93;;;1.80;72.80;;;;;;5035611;28;20175;-86
2022/03/07 08:55:19;;;;;;;27.03;19.37;;;1.80;72.70;;;;;;5035738;28;20183;-85
2022/03/07 08:57:44;;;;;;;22.93;18.47;;;1.80;73.00;;;;;;5053609;28;20170;-84
2022/03/07 09:00:13;;;;;;;23.70;18.37;;;1.90;73.50;;;;;;5035342;28;20262;-87
2022/03/07 09:02:39;;;;;;;24.80;18.17;;;2.00;73.00;;;;;;5052900;28;20232;-84
2022/03/07 09:05:05;;;;;;;29.97;16.93;;;2.10;72.80;;;;;;5035688;28;20170;-87
2022/03/07 09:07:31;;;;;;;26.33;17.83;;;2.10;73.10;;;;;;5054125;28;20170;-87
2022/03/07 09:09:58;;;;;;;28.53;17.07;;;2.20;72.50;;;;;;5054601;28;20194;-87
2022/03/07 09:12:27;;;;;;;22.53;17.17;;;2.30;72.70;;;;;;5055641;28;20171;-87
2022/03/07 09:14:56;;;;;;;27.53;18.53;;;2.30;72.50;;;;;;5035678;28;20635;-87
2022/03/07 09:17:22;;;;;;;22.50;17.63;;;2.40;72.90;;;;;;5053384;28;20252;-86
2022/03/07 09:19:48;;;;;;;24.97;17.97;;;2.40;72.60;;;;;;5035692;28;20236;-87
2022/03/07 09:22:13;;;;;;;23.80;17.57;;;2.60;72.50;;;;;;5053671;28;20175;-86
2022/03/07 09:24:39;;;;;;;26.63;18.60;;;2.60;72.40;;;;;;5053636;28;20175;-87
2022/03/07 09:27:05;;;;;;;21.87;17.17;;;2.70;72.80;;;;;;5053707;28;20615;-86
2022/03/07 09:29:31;;;;;;;21.50;16.53;;;2.80;71.90;;;;;;5054284;28;20185;-88
2022/03/07 09:31:57;;;;;;;23.43;16.97;;;3.10;78.10;;;;;;5054512;28;20179;-87
2022/03/07 09:34:22;;;;;;;25.17;16.90;;;3.30;74.40;;;;;;5057527;28;20227;-87
2022/03/07 09:36:48;;;;;;;21.20;16.37;;;3.50;70.40;;;;;;5072691;28;20564;-86
2022/03/07 09:39:14;;;;;;;21.97;18.10;;;3.60;69.20;;;;;;5074431;28;20176;-87
2022/03/07 09:41:42;;;;;;;22.13;17.10;;;3.70;69.00;;;;;;5038726;28;20581;-87
2022/03/07 09:44:09;;;;;;;22.37;17.10;;;3.70;67.50;;;;;;5039077;28;20240;-86
2022/03/07 09:46:36;;;;;;;24.67;17.07;;;3.60;68.00;;;;;;5054364;28;20179;-86
2022/03/07 09:49:02;;;;;;;23.03;16.97;;;3.70;69.30;;;;;;5056195;28;20531;-88
2022/03/07 09:51:28;;;;;;;23.80;17.23;;;3.70;68.60;;;;;;5055347;28;20539;-86
2022/03/07 09:53:54;;;;;;;22.10;17.33;;;3.80;67.10;;;;;;5035439;28;20254;-86
2022/03/07 09:56:20;;;;;;;20.20;16.87;;;3.70;67.30;;;;;;5035129;28;20176;-85
2022/03/07 09:58:46;;;;;;;20.50;17.43;;;3.60;67.60;;;;;;5053145;28;20507;-86
2022/03/07 10:01:17;;;;;;;22.10;16.93;;;3.60;68.10;;;;;;5035645;28;20182;-84
2022/03/07 10:03:43;;;;;;;20.27;16.33;;;3.70;68.20;;;;;;5054316;28;20196;-84
2022/03/07 10:06:14;;;;;;;22.33;16.33;;;3.80;67.80;;;;;;5053368;28;20177;-85
2022/03/07 10:08:56;;;;;;;22.80;16.83;;;3.90;67.50;;;;;;5053017;28;20168;-85
2022/03/07 10:11:22;;;;;;;19.03;16.87;;;4.00;66.80;;;;;;5052692;28;20529;-85
2022/03/07 10:13:50;;;;;;;22.67;16.43;;;4.10;66.40;;;;;;5056015;28;20173;-85
2022/03/07 10:16:17;;;;;;;25.37;16.33;;;4.10;66.00;;;;;;5056355;28;20213;-86
2022/03/07 10:18:49;;;;;;;22.93;16.20;;;4.00;65.30;;;;;;5056629;28;20250;-85
2022/03/07 10:21:25;;;;;;;20.77;16.27;;;4.00;66.20;;;;;;5038472;28;20177;-85
2022/03/07 10:23:56;;;;;;;21.50;16.60;;;4.30;67.00;;;;;;5057679;28;20800;-86
2022/03/07 10:26:22;;;;;;;19.80;16.20;;;4.60;65.50;;;;;;5056326;28;20163;-84
2022/03/07 10:28:54;;;;;;;20.17;16.43;;;4.80;65.00;;;;;;5058030;28;20174;-85
2022/03/07 10:31:20;;;;;;;20.80;16.07;;;4.70;65.50;;;;;;5039768;28;20176;-85
2022/03/07 10:33:47;;;;;;;20.90;16.90;;;4.60;65.40;;;;;;5057083;28;20372;-86
2022/03/07 10:36:13;;;;;;;18.57;15.83;;;4.50;65.50;;;;;;5039798;28;20182;-86
2022/03/07 10:38:39;;;;;;;19.53;16.37;;;4.30;64.00;;;;;;5057173;28;20210;-84
2022/03/07 10:41:05;;;;;;;21.33;16.60;;;4.20;63.90;;;;;;5058965;28;20176;-87
2022/03/07 10:43:31;;;;;;;19.27;15.93;;;4.10;63.90;;;;;;5056305;28;20203;-87
2022/03/07 10:45:59;;;;;;;22.93;16.33;;;4.10;64.10;;;;;;5055613;28;20251;-84
2022/03/07 10:48:28;;;;;;;18.43;15.17;;;4.10;65.00;;;;;;5038064;28;20258;-87
2022/03/07 10:50:57;;;;;;;22.07;16.00;;;4.20;65.10;;;;;;5055752;28;20195;-86
2022/03/07 10:53:23;;;;;;;18.53;15.13;;;4.20;63.90;;;;;;5037836;28;20197;-84
2022/03/07 10:55:57;;;;;;;20.27;15.83;;;4.20;64.50;;;;;;5055496;28;20182;-87
2022/03/07 10:58:23;;;;;;;18.57;15.53;;;4.50;64.90;;;;;;5056209;28;20194;-87
2022/03/07 11:00:54;;;;;;;20.03;15.87;;;4.60;63.30;;;;;;5055841;28;20574;-87
2022/03/07 11:03:26;;;;;;;24.30;16.43;;;4.70;63.50;;;;;;5037735;28;20576;-87
2022/03/07 11:05:52;;;;;;;19.33;15.33;;;4.80;64.50;;;;;;5056873;28;20195;-89
2022/03/07 11:08:20;;;;;;;16.97;15.10;;;5.00;64.20;;;;;;5039835;28;20571;-88
2022/03/07 11:10:54;;;;;;;20.00;16.00;;;5.10;63.10;;;;;;5055912;28;20174;-87
2022/03/07 11:13:26;;;;;;;21.00;16.33;;;5.20;62.90;;;;;;5031268;28;20177;-87
2022/03/07 11:16:12;;;;;;;18.70;15.13;;;5.20;61.40;;;;;;5056144;28;20158;-84
2022/03/07 11:18:40;;;;;;;17.50;15.60;;;5.20;62.50;;;;;;5055508;28;20627;-85
2022/03/07 11:21:06;;;;;;;19.37;15.83;;;5.20;62.10;;;;;;5055621;28;20172;-87
2022/03/07 11:23:32;;;;;;;17.77;15.00;;;5.10;62.10;;;;;;5055921;28;20290;-84
2022/03/07 11:25:59;;;;;;;17.07;14.57;;;5.10;62.60;;;;;;5065773;28;20173;-87
2022/03/07 11:28:28;;;;;;;21.40;15.53;;;4.80;61.20;;;;;;5062000;28;20654;-87
2022/03/07 11:30:57;;;;;;;19.50;15.97;;;4.70;61.60;;;;;;5074192;28;20163;-86
2022/03/07 11:33:28;;;;;;;20.30;15.73;;;4.40;62.30;;;;;;5059211;28;20231;-85
2022/03/07 11:35:54;;;;;;;19.60;15.40;;;4.40;62.60;;;;;;5039711;28;20175;-85
2022/03/07 11:38:25;;;;;;;19.17;15.83;;;4.30;62.90;;;;;;5055700;28;20178;-86
2022/03/07 11:41:10;;;;;;;20.77;15.63;;;4.30;62.90;;;;;;5054890;28;20196;-85
2022/03/07 11:43:48;;;;;;;18.90;16.00;;;4.40;63.20;;;;;;5054879;28;20621;-85
2022/03/07 11:46:34;;;;;;;20.67;15.63;;;4.50;64.60;;;;;;5054811;28;20227;-84
2022/03/07 11:49:02;;;;;;;19.13;15.63;;;4.50;64.60;;;;;;5036739;28;20551;-84
2022/03/07 11:51:30;;;;;;;19.47;15.80;;;4.60;63.30;;;;;;5054471;28;20186;-87
2022/03/07 11:53:57;;;;;;;22.23;15.70;;;4.60;63.00;;;;;;5055116;28;20178;-86
2022/03/07 11:56:37;;;;;;;19.00;15.90;;;4.70;63.40;;;;;;5041612;28;20286;-84
2022/03/07 11:59:05;;;;;;;19.40;15.20;;;4.80;63.10;;;;;;5071833;28;20175;-84
2022/03/07 12:01:32;;;;;;;18.03;15.63;;;4.80;63.30;;;;;;5070539;28;20167;-85
2022/03/07 12:04:14;;;;;;;18.60;15.97;;;4.80;62.60;;;;;;5039763;28;20215;-85
2022/03/07 12:06:48;;;;;;;16.87;15.07;;;4.90;62.10;;;;;;5038351;28;20206;-85
2022/03/07 12:09:49;;;;;;;20.10;15.47;;;4.90;61.90;;;;;;5037326;28;20167;-87
2022/03/07 12:12:15;;;;;;;18.60;15.20;;;4.80;62.10;;;;;;5025406;28;20179;-86
2022/03/07 12:14:44;;;;;;;17.60;15.17;;;4.70;61.80;;;;;;5033028;28;20246;-88
2022/03/07 12:17:23;;;;;;;19.53;15.53;;;4.70;61.90;;;;;;5033055;28;20194;-87
2022/03/07 12:19:56;;;;;;;19.73;15.10;;;4.60;61.80;;;;;;5033107;28;20183;-87
2022/03/07 12:22:27;;;;;;;18.87;15.27;;;4.50;61.80;;;;;;5015622;28;22150;-87
2022/03/07 12:24:57;;;;;;;18.60;14.87;;;4.50;61.80;;;;;;5032948;28;20581;-87
2022/03/07 12:27:24;;;;;;;19.33;15.40;;;4.50;61.80;;;;;;5032524;28;20319;-87
2022/03/07 12:29:54;;;;;;;18.03;15.20;;;4.60;62.10;;;;;;5032347;28;20679;-86
2022/03/07 12:32:20;;;;;;;18.93;15.90;;;4.80;63.10;;;;;;5015754;28;20667;-85